createdAt,value
2022-11-09T00:01:02.014Z,96089.91
2022-11-09T00:03:28.446Z,96091.69
2022-11-09T00:05:58.393Z,96094.31
2022-11-09T00:08:24.989Z,96095.97
2022-11-09T00:10:51.482Z,96088.41
2022-11-09T00:13:18.306Z,96092.03
2022-11-09T00:15:44.993Z,96088.25
2022-11-09T00:18:11.408Z,96082.69
2022-11-09T00:20:37.804Z,96086.13
2022-11-09T00:23:04.201Z,96085.97
2022-11-09T00:25:30.804Z,96081.06
2022-11-09T00:27:57.182Z,96085.81
2022-11-09T00:30:23.569Z,96083.03
2022-11-09T00:32:49.939Z,96088.25
2022-11-09T00:35:16.376Z,96092.22
2022-11-09T00:37:42.878Z,96087.78
2022-11-09T00:40:09.762Z,96085.13
2022-11-09T00:42:36.141Z,96086.47
2022-11-09T00:45:02.530Z,96083.16
2022-11-09T00:47:28.898Z,96089.75
2022-11-09T00:49:55.673Z,96089.41
2022-11-09T00:52:22.024Z,96088.91
2022-11-09T00:54:48.407Z,96082.03
2022-11-09T00:57:14.782Z,96085.31
2022-11-09T00:59:41.138Z,96080.25
2022-11-09T01:02:07.519Z,96072.53
2022-11-09T01:04:34.036Z,96076.63
2022-11-09T01:07:00.448Z,96072.34
2022-11-09T01:09:27.125Z,96072.00
2022-11-09T01:11:53.857Z,96072.50
2022-11-09T01:14:20.217Z,96066.75
2022-11-09T01:16:46.585Z,96069.34
2022-11-09T01:19:13.039Z,96060.63
2022-11-09T01:21:39.470Z,96052.75
2022-11-09T01:24:05.867Z,96067.00
2022-11-09T01:26:33.809Z,96058.69
2022-11-09T01:29:00.623Z,96048.19
2022-11-09T01:31:27.255Z,96056.19
2022-11-09T01:33:53.679Z,96049.44
2022-11-09T01:36:22.707Z,96052.00
2022-11-09T01:38:49.715Z,96047.31
2022-11-09T01:41:17.848Z,96055.69
2022-11-09T01:43:45.110Z,96048.72
2022-11-09T01:46:22.915Z,96042.09
2022-11-09T01:48:51.807Z,96041.25
2022-11-09T01:51:23.956Z,96040.22
2022-11-09T01:53:52.865Z,96037.59
2022-11-09T01:56:19.787Z,96040.06
2022-11-09T01:58:48.901Z,96032.00
2022-11-09T02:01:16.276Z,96035.03
2022-11-09T02:03:44.689Z,96033.66
2022-11-09T02:06:12.544Z,96033.66
2022-11-09T02:08:39.611Z,96034.66
2022-11-09T02:11:10.153Z,96028.75
2022-11-09T02:13:41.851Z,96041.91
2022-11-09T02:16:09.288Z,96031.75
2022-11-09T02:18:36.536Z,96031.75
2022-11-09T02:21:03.001Z,96036.38
2022-11-09T02:23:29.690Z,96036.09
2022-11-09T02:25:58.850Z,96038.06
2022-11-09T02:28:26.380Z,96038.06
2022-11-09T02:30:54.304Z,96039.06
2022-11-09T02:33:21.113Z,96036.44
2022-11-09T02:35:47.819Z,96032.44
2022-11-09T02:38:14.748Z,96025.84
2022-11-09T02:40:43.155Z,96032.13
2022-11-09T02:43:10.444Z,96019.94
2022-11-09T02:45:37.201Z,96028.00
2022-11-09T02:48:03.803Z,96032.13
2022-11-09T02:50:30.172Z,96022.84
2022-11-09T02:52:56.542Z,96024.84
2022-11-09T02:55:22.959Z,96021.13
2022-11-09T02:57:49.330Z,96026.63
2022-11-09T03:00:15.909Z,96022.78
2022-11-09T03:02:42.368Z,96032.00
2022-11-09T03:05:08.878Z,96028.84
2022-11-09T03:07:35.300Z,96034.09
2022-11-09T03:10:01.733Z,96023.28
2022-11-09T03:12:30.875Z,96028.41
2022-11-09T03:14:58.115Z,96027.88
2022-11-09T03:17:24.788Z,96027.50
2022-11-09T03:19:51.202Z,96031.44
2022-11-09T03:22:17.806Z,96024.66
2022-11-09T03:24:44.251Z,96035.63
2022-11-09T03:27:10.972Z,96020.13
2022-11-09T03:29:37.525Z,96018.97
2022-11-09T03:32:04.132Z,96020.00
2022-11-09T03:34:30.574Z,96015.91
2022-11-09T03:36:56.975Z,96019.16
2022-11-09T03:39:23.847Z,96020.22
2022-11-09T03:41:50.410Z,96020.88
2022-11-09T03:44:16.874Z,96025.59
2022-11-09T03:46:43.267Z,96022.16
2022-11-09T03:49:09.693Z,96020.00
2022-11-09T03:51:36.076Z,96018.81
2022-11-09T03:54:02.523Z,96020.47
2022-11-09T03:56:28.932Z,96016.19
2022-11-09T03:58:55.339Z,96007.63
2022-11-09T04:01:21.882Z,96009.09
2022-11-09T04:03:48.339Z,96012.56
2022-11-09T04:06:14.763Z,96015.81
2022-11-09T04:08:41.123Z,96017.94
2022-11-09T04:11:07.505Z,96016.41
2022-11-09T04:13:33.870Z,96015.03
2022-11-09T04:16:00.268Z,96020.47
2022-11-09T04:18:26.643Z,96018.72
2022-11-09T04:20:53.070Z,96016.00
2022-11-09T04:23:19.783Z,96025.25
2022-11-09T04:25:46.425Z,96022.69
2022-11-09T04:28:13.112Z,96022.56
2022-11-09T04:30:39.860Z,96028.28
2022-11-09T04:33:06.266Z,96013.91
2022-11-09T04:35:33.223Z,96021.41
2022-11-09T04:38:01.396Z,96018.47
2022-11-09T04:40:28.778Z,96019.97
2022-11-09T04:42:55.465Z,96014.25
2022-11-09T04:45:22.233Z,96016.78
2022-11-09T04:47:48.882Z,96009.09
2022-11-09T04:50:15.488Z,96014.41
2022-11-09T04:52:41.951Z,96016.91
2022-11-09T04:55:08.520Z,96015.97
2022-11-09T04:57:34.894Z,96005.81
2022-11-09T05:00:01.265Z,96015.00
2022-11-09T05:02:27.666Z,96020.44
2022-11-09T05:04:54.050Z,96014.06
2022-11-09T05:07:20.447Z,96009.34
2022-11-09T05:09:46.808Z,96012.50
2022-11-09T05:12:13.394Z,96015.78
2022-11-09T05:14:39.784Z,96025.00
2022-11-09T05:17:06.780Z,96012.19
2022-11-09T05:19:33.149Z,96013.53
2022-11-09T05:22:19.504Z,96022.38
2022-11-09T05:24:46.245Z,96028.94
2022-11-09T05:27:12.631Z,96025.97
2022-11-09T05:29:39.004Z,96026.94
2022-11-09T05:32:05.615Z,96039.38
2022-11-09T05:34:32.661Z,96038.22
2022-11-09T05:37:03.325Z,96037.88
2022-11-09T05:39:30.134Z,96032.63
2022-11-09T05:41:56.495Z,96046.03
2022-11-09T05:44:29.263Z,96036.66
2022-11-09T05:46:55.625Z,96027.78
2022-11-09T05:49:22.051Z,96037.94
2022-11-09T05:51:48.436Z,96046.47
2022-11-09T05:54:14.824Z,96039.72
2022-11-09T05:56:41.179Z,96041.56
2022-11-09T05:59:08.395Z,96040.56
2022-11-09T06:01:34.775Z,96048.91
2022-11-09T06:04:01.147Z,96048.84
2022-11-09T06:06:27.562Z,96048.81
2022-11-09T06:08:54.029Z,96045.66
2022-11-09T06:11:23.936Z,96047.66
2022-11-09T06:13:51.441Z,96035.03
2022-11-09T06:16:17.919Z,96049.38
2022-11-09T06:18:44.287Z,96051.72
2022-11-09T06:21:11.104Z,96045.16
2022-11-09T06:23:37.560Z,96045.81
2022-11-09T06:26:09.189Z,96047.28
2022-11-09T06:28:36.842Z,96060.25
2022-11-09T06:31:04.438Z,96061.50
2022-11-09T06:33:31.881Z,96055.28
2022-11-09T06:35:58.672Z,96049.31
2022-11-09T06:38:26.558Z,96052.56
2022-11-09T06:40:56.856Z,96048.25
2022-11-09T06:43:24.039Z,96047.56
2022-11-09T06:45:51.129Z,96055.38
2022-11-09T06:48:17.738Z,96049.88
2022-11-09T06:50:44.217Z,96054.91
2022-11-09T06:53:11.856Z,96053.19
2022-11-09T06:55:38.272Z,96046.25
2022-11-09T06:58:08.860Z,96043.91
2022-11-09T07:00:35.722Z,96042.56
2022-11-09T07:03:02.559Z,96041.22
2022-11-09T07:05:28.950Z,96039.66
2022-11-09T07:07:55.351Z,96034.88
2022-11-09T07:10:21.746Z,96034.16
2022-11-09T07:12:48.293Z,96037.25
2022-11-09T07:15:14.716Z,96025.53
2022-11-09T07:17:48.331Z,96035.75
2022-11-09T07:20:15.136Z,96027.31
2022-11-09T07:22:42.080Z,96035.69
2022-11-09T07:25:13.682Z,96035.31
2022-11-09T07:27:40.104Z,96028.66
2022-11-09T07:30:06.839Z,96031.59
2022-11-09T07:33:07.596Z,96037.16
2022-11-09T07:35:20.588Z,96031.50
2022-11-09T07:37:46.982Z,96032.41
2022-11-09T07:40:13.523Z,96037.31
2022-11-09T07:42:39.910Z,96024.44
2022-11-09T07:45:06.648Z,96027.31
2022-11-09T07:47:33.028Z,96027.84
2022-11-09T07:49:59.394Z,96026.50
2022-11-09T07:52:25.792Z,96029.41
2022-11-09T07:54:52.539Z,96020.09
2022-11-09T07:57:18.993Z,96015.28
2022-11-09T07:59:45.370Z,96024.66
2022-11-09T08:02:12.162Z,96022.66
2022-11-09T08:04:39.110Z,96021.66
2022-11-09T08:07:05.614Z,96013.19
2022-11-09T08:09:32.112Z,96016.25
2022-11-09T08:11:58.478Z,96016.53
2022-11-09T08:14:25.039Z,96009.25
2022-11-09T08:16:52.537Z,96008.88
2022-11-09T08:19:18.919Z,96014.16
2022-11-09T08:21:45.339Z,96014.06
2022-11-09T08:24:11.729Z,96006.75
2022-11-09T08:26:38.101Z,96009.03
2022-11-09T08:29:04.468Z,96017.19
2022-11-09T08:31:31.075Z,96016.19
2022-11-09T08:33:57.470Z,96014.56
2022-11-09T08:36:26.053Z,96019.44
2022-11-09T08:38:52.846Z,96020.47
2022-11-09T08:41:19.295Z,96022.28
2022-11-09T08:43:45.737Z,96023.72
2022-11-09T08:46:12.128Z,96026.59
2022-11-09T08:48:38.534Z,96029.06
2022-11-09T08:51:04.944Z,96031.53
2022-11-09T08:53:31.397Z,96027.69
2022-11-09T08:55:58.017Z,96029.59
2022-11-09T08:58:24.508Z,96028.38
2022-11-09T09:00:51.167Z,96026.38
2022-11-09T09:03:17.643Z,96026.00
2022-11-09T09:05:44.354Z,96024.63
2022-11-09T09:08:12.899Z,96023.22
2022-11-09T09:10:40.522Z,96020.81
2022-11-09T09:13:06.959Z,96020.47
2022-11-09T09:15:33.733Z,96020.72
2022-11-09T09:18:01.315Z,96016.66
2022-11-09T09:20:27.990Z,96022.19
2022-11-09T09:22:54.718Z,96023.44
2022-11-09T09:25:21.109Z,96014.59
2022-11-09T09:27:47.517Z,96017.91
2022-11-09T09:30:14.293Z,96019.13
2022-11-09T09:32:40.690Z,96014.69
2022-11-09T09:35:07.250Z,96012.28
2022-11-09T09:37:33.838Z,96017.16
2022-11-09T09:40:00.270Z,96014.34
2022-11-09T09:42:32.255Z,96008.50
2022-11-09T09:45:08.231Z,96012.56
2022-11-09T09:47:43.888Z,96008.72
2022-11-09T09:50:12.771Z,95998.97
2022-11-09T09:52:50.637Z,96001.03
2022-11-09T09:55:35.942Z,96000.25
2022-11-09T09:58:22.987Z,96002.94
2022-11-09T10:00:52.373Z,95994.06
2022-11-09T10:03:20.871Z,96000.00
2022-11-09T10:05:58.442Z,95995.56
2022-11-09T10:08:40.249Z,95988.50
2022-11-09T10:11:12.743Z,95989.94
2022-11-09T10:13:57.326Z,95981.81
2022-11-09T10:16:33.280Z,95986.34
2022-11-09T10:19:22.963Z,95981.50
2022-11-09T10:21:54.889Z,95981.09
2022-11-09T10:24:36.782Z,95990.69
2022-11-09T10:27:05.878Z,95970.97
2022-11-09T10:29:39.139Z,95966.13
2022-11-09T10:32:12.677Z,95952.25
2022-11-09T10:34:43.895Z,95961.84
2022-11-09T10:37:15.756Z,95960.03
2022-11-09T10:39:44.654Z,95948.19
2022-11-09T10:42:11.563Z,95950.22
2022-11-09T10:44:38.038Z,95949.59
2022-11-09T10:47:07.480Z,95963.25
2022-11-09T10:49:36.846Z,95941.63
2022-11-09T10:52:04.336Z,95948.16
2022-11-09T10:54:37.042Z,95947.94
2022-11-09T10:57:09.137Z,95941.78
2022-11-09T10:59:37.752Z,95948.47
2022-11-09T11:02:24.071Z,95939.28
2022-11-09T11:04:50.726Z,95942.72
2022-11-09T11:07:21.888Z,95933.31
2022-11-09T11:09:48.415Z,95939.41
2022-11-09T11:12:16.095Z,95928.75
2022-11-09T11:14:44.456Z,95933.00
2022-11-09T11:17:24.919Z,95932.16
2022-11-09T11:19:51.334Z,95924.97
2022-11-09T11:22:19.445Z,95932.28
2022-11-09T11:24:45.813Z,95919.19
2022-11-09T11:27:27.096Z,95916.75
2022-11-09T11:29:53.463Z,95930.53
2022-11-09T11:32:20.517Z,95925.19
2022-11-09T11:35:02.230Z,95923.88
2022-11-09T11:37:28.754Z,95916.91
2022-11-09T11:40:04.070Z,95915.84
2022-11-09T11:42:49.358Z,95907.81
2022-11-09T11:45:39.587Z,95910.78
2022-11-09T11:48:11.492Z,95901.41
2022-11-09T11:50:51.820Z,95893.22
2022-11-09T11:53:30.563Z,95912.59
2022-11-09T11:56:09.215Z,95901.34
2022-11-09T11:58:51.003Z,95889.59
2022-11-09T12:01:17.482Z,95896.97
2022-11-09T12:04:02.675Z,95901.88
2022-11-09T12:06:29.348Z,95895.66
2022-11-09T12:08:55.785Z,95887.47
2022-11-09T12:11:40.969Z,95885.03
2022-11-09T12:14:21.742Z,95894.63
2022-11-09T12:17:02.109Z,95896.41
2022-11-09T12:19:40.756Z,95893.47
2022-11-09T12:22:11.728Z,95895.47
2022-11-09T12:24:38.140Z,95902.63
2022-11-09T12:30:34.510Z,95899.59
2022-11-09T12:33:07.636Z,95904.91
2022-11-09T12:35:33.988Z,95898.13
2022-11-09T12:38:02.908Z,95898.69
2022-11-09T12:40:38.589Z,95902.19
2022-11-09T12:43:15.548Z,95898.69
2022-11-09T12:45:42.090Z,95903.38
2022-11-09T12:48:29.310Z,95907.34
2022-11-09T12:50:56.244Z,95911.56
2022-11-09T12:53:25.487Z,95907.63
2022-11-09T12:55:54.840Z,95907.00
2022-11-09T12:58:29.167Z,95907.34
2022-11-09T13:00:57.126Z,95901.44
2022-11-09T13:03:33.455Z,95904.69
2022-11-09T13:06:12.130Z,95904.56
2022-11-09T13:08:39.997Z,95897.59
2022-11-09T13:11:09.206Z,95902.31
2022-11-09T13:13:36.069Z,95907.44
2022-11-09T13:16:11.544Z,95907.63
2022-11-09T13:18:42.878Z,95914.44
2022-11-09T13:21:20.869Z,95918.19
2022-11-09T13:24:00.646Z,95902.78
2022-11-09T13:26:28.254Z,95908.75
2022-11-09T13:29:24.246Z,95911.03
2022-11-09T13:32:05.817Z,95900.03
2022-11-09T13:34:39.217Z,95897.97
2022-11-09T13:37:24.520Z,95897.16
2022-11-09T13:39:50.926Z,95883.97
2022-11-09T13:42:26.576Z,95889.50
2022-11-09T13:44:53.387Z,95884.19
2022-11-09T13:47:23.935Z,95889.31
2022-11-09T13:49:50.972Z,95886.25
2022-11-09T13:52:36.057Z,95885.13
2022-11-09T13:55:02.910Z,95900.66
2022-11-09T13:57:31.853Z,95893.94
2022-11-09T13:59:59.416Z,95902.13
2022-11-09T14:02:26.548Z,95907.22
2022-11-09T14:04:54.236Z,95909.09
2022-11-09T14:07:24.899Z,95905.16
2022-11-09T14:10:11.212Z,95913.50
2022-11-09T14:12:46.521Z,95907.97
2022-11-09T14:15:31.243Z,95911.75
2022-11-09T14:18:11.769Z,95909.53
2022-11-09T14:20:43.203Z,95910.94
2022-11-09T14:23:15.751Z,95915.50
2022-11-09T14:25:42.316Z,95911.06
2022-11-09T14:28:20.152Z,95911.50
2022-11-09T14:30:46.838Z,95909.06
2022-11-09T14:33:34.536Z,95907.50
2022-11-09T14:36:02.378Z,95910.41
2022-11-09T14:38:31.373Z,95911.06
2022-11-09T14:40:57.791Z,95909.06
2022-11-09T14:43:26.299Z,95902.53
2022-11-09T14:45:54.391Z,95894.84
2022-11-09T14:48:22.307Z,95899.59
2022-11-09T14:50:50.191Z,95899.66
2022-11-09T14:53:25.689Z,95901.09
2022-11-09T14:55:53.669Z,95886.84
2022-11-09T14:58:21.395Z,95892.84
2022-11-09T15:01:06.500Z,95889.81
2022-11-09T15:03:32.964Z,95889.41
2022-11-09T15:06:11.558Z,95905.53
2022-11-09T15:08:44.693Z,95903.53
2022-11-09T15:11:11.086Z,95900.06
2022-11-09T15:13:39.556Z,95903.13
2022-11-09T15:16:06.354Z,95899.69
2022-11-09T15:18:34.629Z,95892.38
2022-11-09T15:21:19.996Z,95888.75
2022-11-09T15:23:47.536Z,95896.69
2022-11-09T15:26:24.984Z,95902.38
2022-11-09T15:28:52.431Z,95902.44
2022-11-09T15:31:19.529Z,95898.97
2022-11-09T15:33:47.631Z,95895.56
2022-11-09T15:36:33.768Z,95918.41
2022-11-09T15:39:00.122Z,95906.16
2022-11-09T15:41:26.642Z,95907.22
2022-11-09T15:43:53.413Z,95908.25
2022-11-09T15:46:21.716Z,95912.53
2022-11-09T15:48:48.791Z,95907.44
2022-11-09T15:51:15.914Z,95907.47
2022-11-09T15:53:42.334Z,95905.66
2022-11-09T15:56:17.335Z,95894.88
2022-11-09T15:58:44.029Z,95908.09
2022-11-09T16:01:11.002Z,95902.59
2022-11-09T16:03:37.451Z,95897.72
2022-11-09T16:06:03.924Z,95909.53
2022-11-09T16:08:30.312Z,95902.19
2022-11-09T16:10:56.698Z,95912.59
2022-11-09T16:13:23.076Z,95911.75
2022-11-09T16:15:49.450Z,95919.28
2022-11-09T16:18:22.860Z,95919.09
2022-11-09T16:20:52.000Z,95925.59
2022-11-09T16:23:18.373Z,95918.88
2022-11-09T16:25:44.859Z,95919.28
2022-11-09T16:28:11.358Z,95919.91
2022-11-09T16:30:40.500Z,95917.84
2022-11-09T16:33:09.634Z,95917.63
2022-11-09T16:35:36.075Z,95920.69
2022-11-09T16:38:02.761Z,95925.78
2022-11-09T16:40:29.470Z,95932.50
2022-11-09T16:42:55.886Z,95932.50
2022-11-09T16:45:22.526Z,95938.78
2022-11-09T16:47:51.097Z,95946.09
2022-11-09T16:50:17.488Z,95939.19
2022-11-09T16:52:44.732Z,95935.50
2022-11-09T16:55:11.173Z,95943.22
2022-11-09T16:57:37.629Z,95940.34
2022-11-09T17:00:05.707Z,95936.66
2022-11-09T17:02:32.209Z,95941.16
2022-11-09T17:04:58.623Z,95928.94
2022-11-09T17:07:25.001Z,95937.06
2022-11-09T17:09:51.392Z,95944.56
2022-11-09T17:12:17.808Z,95931.13
2022-11-09T17:14:44.176Z,95935.44
2022-11-09T17:17:10.662Z,95928.91
2022-11-09T17:19:37.306Z,95935.59
2022-11-09T17:22:04.521Z,95937.81
2022-11-09T17:24:31.618Z,95939.81
2022-11-09T17:26:57.993Z,95938.63
2022-11-09T17:29:24.760Z,95941.06
2022-11-09T17:31:51.312Z,95942.28
2022-11-09T17:34:17.737Z,95939.03
2022-11-09T17:39:30.640Z,95944.81
2022-11-09T17:41:57.085Z,95937.28
2022-11-09T17:44:23.479Z,95938.09
2022-11-09T17:46:49.922Z,95944.97
2022-11-09T17:49:16.322Z,95942.31
2022-11-09T17:51:42.744Z,95942.84
2022-11-09T17:54:09.159Z,95931.88
2022-11-09T17:56:35.898Z,95933.13
2022-11-09T17:59:03.617Z,95935.16
2022-11-09T18:01:30.718Z,95936.41
2022-11-09T18:03:57.154Z,95941.03
2022-11-09T18:06:24.180Z,95933.91
2022-11-09T18:09:10.739Z,95933.28
2022-11-09T18:11:37.084Z,95931.28
2022-11-09T18:14:03.854Z,95926.59
2022-11-09T18:16:30.321Z,95929.22
2022-11-09T18:19:01.445Z,95928.63
2022-11-09T18:21:28.679Z,95933.91
2022-11-09T18:23:55.227Z,95932.88
2022-11-09T18:26:22.041Z,95937.16
2022-11-09T18:28:48.484Z,95936.97
2022-11-09T18:31:14.988Z,95944.94
2022-11-09T18:33:42.771Z,95931.13
2022-11-09T18:36:15.023Z,95938.88
2022-11-09T18:38:42.262Z,95934.03
2022-11-09T18:41:12.798Z,95938.91
2022-11-09T18:43:39.339Z,95944.63
2022-11-09T18:46:07.058Z,95943.47
2022-11-09T18:48:34.086Z,95949.56
2022-11-09T18:51:00.837Z,95957.28
2022-11-09T18:53:28.624Z,95951.59
2022-11-09T18:56:06.287Z,95941.03
2022-11-09T18:58:33.356Z,95952.00
2022-11-09T19:01:00.801Z,95938.59
2022-11-09T19:03:27.509Z,95947.34
2022-11-09T19:05:53.961Z,95946.75
2022-11-09T19:08:40.544Z,95939.03
2022-11-09T19:11:09.932Z,95942.13
2022-11-09T19:13:36.995Z,95939.91
2022-11-09T19:16:03.766Z,95939.50
2022-11-09T19:18:30.173Z,95936.66
2022-11-09T19:20:56.557Z,95950.47
2022-11-09T19:23:23.068Z,95939.28
2022-11-09T19:25:50.282Z,95940.13
2022-11-09T19:28:16.660Z,95939.50
2022-11-09T19:30:43.174Z,95941.75
2022-11-09T19:33:09.551Z,95933.81
2022-11-09T19:35:35.912Z,95929.75
2022-11-09T19:38:06.212Z,95928.53
2022-11-09T19:40:38.362Z,95938.50
2022-11-09T19:43:05.989Z,95928.94
2022-11-09T19:45:32.388Z,95926.91
2022-11-09T19:47:58.883Z,95927.75
2022-11-09T19:50:25.291Z,95911.88
2022-11-09T19:52:51.656Z,95924.28
2022-11-09T19:55:18.095Z,95916.34
2022-11-09T19:57:44.494Z,95919.41
2022-11-09T20:00:11.325Z,95916.75
2022-11-09T20:02:37.704Z,95915.09
2022-11-09T20:05:04.361Z,95912.25
2022-11-09T20:07:32.083Z,95914.09
2022-11-09T20:09:58.501Z,95918.78
2022-11-09T20:12:43.655Z,95913.50
2022-11-09T20:15:10.068Z,95911.88
2022-11-09T20:17:36.967Z,95910.22
2022-11-09T20:20:03.484Z,95912.03
2022-11-09T20:22:29.882Z,95912.25
2022-11-09T20:24:56.257Z,95909.00
2022-11-09T20:27:22.632Z,95911.00
2022-11-09T20:29:49.018Z,95911.00
2022-11-09T20:32:20.431Z,95908.75
2022-11-09T20:34:49.441Z,95913.66
2022-11-09T20:37:16.686Z,95908.97
2022-11-09T20:39:43.270Z,95913.66
2022-11-09T20:42:10.391Z,95922.59
2022-11-09T20:44:36.961Z,95927.88
2022-11-09T20:47:03.765Z,95919.19
2022-11-09T20:49:30.143Z,95924.47
2022-11-09T20:51:56.547Z,95926.94
2022-11-09T20:54:22.987Z,95908.25
2022-11-09T20:56:49.372Z,95911.50
2022-11-09T20:59:15.987Z,95913.78
2022-11-09T21:01:42.413Z,95909.50
2022-11-09T21:04:09.384Z,95908.66
2022-11-09T21:06:35.793Z,95907.47
2022-11-09T21:09:04.665Z,95902.16
2022-11-09T21:11:57.290Z,95903.56
2022-11-09T21:14:23.788Z,95905.59
2022-11-09T21:16:50.159Z,95908.00
2022-11-09T21:19:16.544Z,95905.78
2022-11-09T21:21:43.037Z,95912.66
2022-11-09T21:24:28.342Z,95907.38
2022-11-09T21:27:13.118Z,95906.97
2022-11-09T21:29:51.621Z,95913.91
2022-11-09T21:32:23.131Z,95910.25
2022-11-09T21:34:50.639Z,95908.00
2022-11-09T21:37:17.268Z,95904.94
2022-11-09T21:39:43.829Z,95903.31
2022-11-09T21:42:13.826Z,95909.81
2022-11-09T21:44:40.282Z,95916.31
2022-11-09T21:47:07.222Z,95921.97
2022-11-09T21:49:33.649Z,95919.09
2022-11-09T21:52:00.093Z,95921.16
2022-11-09T21:54:26.675Z,95915.06
2022-11-09T21:56:53.144Z,95909.97
2022-11-09T21:59:19.643Z,95916.66
2022-11-09T22:01:46.097Z,95916.88
2022-11-09T22:04:12.582Z,95910.38
2022-11-09T22:06:39.812Z,95910.53
2022-11-09T22:09:07.113Z,95904.22
2022-11-09T22:11:51.998Z,95904.00
2022-11-09T22:14:37.916Z,95907.63
2022-11-09T22:17:05.400Z,95903.75
2022-11-09T22:19:50.248Z,95906.41
2022-11-09T22:22:16.643Z,95903.97
2022-11-09T22:24:43.055Z,95913.31
2022-11-09T22:27:09.833Z,95914.31
2022-11-09T22:29:36.314Z,95920.59
2022-11-09T22:32:02.800Z,95919.00
2022-11-09T22:34:29.429Z,95921.63
2022-11-09T22:36:56.017Z,95923.25
2022-11-09T22:39:22.816Z,95921.00
2022-11-09T22:41:49.340Z,95908.59
2022-11-09T22:44:15.756Z,95919.53
2022-11-09T22:46:42.144Z,95910.59
2022-11-09T22:49:08.656Z,95910.53
2022-11-09T22:51:35.161Z,95910.28
2022-11-09T22:54:01.843Z,95911.72
2022-11-09T22:56:28.236Z,95904.97
2022-11-09T22:58:54.633Z,95911.47
2022-11-09T23:01:21.485Z,95917.50
2022-11-09T23:03:47.908Z,95912.63
2022-11-09T23:06:21.184Z,95922.94
2022-11-09T23:08:49.519Z,95925.75
2022-11-09T23:11:18.324Z,95913.94
2022-11-09T23:13:47.807Z,95916.56
2022-11-09T23:16:14.201Z,95917.59
2022-11-09T23:18:55.975Z,95918.56
2022-11-09T23:21:24.374Z,95922.63
2022-11-09T23:23:51.250Z,95930.31
2022-11-09T23:26:18.176Z,95924.16
2022-11-09T23:28:44.619Z,95935.44
2022-11-09T23:31:12.371Z,95930.75
2022-11-09T23:33:39.267Z,95935.00
2022-11-09T23:36:06.734Z,95934.81
2022-11-09T23:38:33.795Z,95939.84
2022-11-09T23:41:04.060Z,95931.09
2022-11-09T23:43:30.854Z,95936.13
2022-11-09T23:46:00.533Z,95923.91
2022-11-09T23:48:26.898Z,95927.13
2022-11-09T23:50:56.599Z,95930.94
2022-11-09T23:53:23.300Z,95932.53
2022-11-09T23:55:50.155Z,95923.56
2022-11-09T23:58:16.575Z,95922.53
